createdAt,value
2018-03-06T00:13:45.769Z,126.13
2018-03-06T00:31:56.495Z,136.50
2018-03-06T01:00:10.737Z,118.27
2018-03-06T01:07:57.425Z,130.20
2018-03-06T01:36:25.689Z,138.60
2018-03-06T01:38:52.272Z,148.50
2018-03-06T01:41:18.806Z,134.70
2018-03-06T01:43:45.648Z,129.83
2018-03-06T01:46:12.263Z,131.33
2018-03-06T01:48:39.244Z,112.00
2018-03-06T01:51:05.939Z,144.87
2018-03-06T01:53:32.592Z,156.03
2018-03-06T01:55:59.354Z,127.30
2018-03-06T01:58:27.090Z,136.47
2018-03-06T02:00:53.816Z,129.63
2018-03-06T02:03:20.479Z,141.33
2018-03-06T02:05:47.133Z,134.93
2018-03-06T02:08:14.920Z,135.57
2018-03-06T02:10:42.283Z,140.30
2018-03-06T02:13:08.901Z,146.40
2018-03-06T02:15:35.487Z,144.17
2018-03-06T02:18:02.111Z,130.03
2018-03-06T02:20:34.698Z,138.97
2018-03-06T02:23:01.743Z,134.67
2018-03-06T02:25:29.042Z,137.00
2018-03-06T02:27:56.126Z,145.10
2018-03-06T02:30:22.762Z,137.17
2018-03-06T02:32:50.883Z,149.93
2018-03-06T02:35:17.508Z,135.80
2018-03-06T02:37:44.797Z,131.80
2018-03-06T02:40:11.454Z,129.27
2018-03-06T02:42:38.815Z,145.10
2018-03-06T02:45:05.445Z,145.40
2018-03-06T02:47:32.011Z,147.30
2018-03-06T02:49:58.716Z,139.57
2018-03-06T02:52:26.165Z,149.40
2018-03-06T02:54:52.761Z,143.83
2018-03-06T02:57:19.304Z,151.97
2018-03-06T02:59:45.864Z,147.07
2018-03-06T03:02:12.378Z,158.07
2018-03-06T03:04:38.958Z,142.23
2018-03-06T03:07:06.379Z,149.53
2018-03-06T03:09:33.726Z,144.30
2018-03-06T03:12:00.463Z,148.13
2018-03-06T03:14:27.050Z,151.77
2018-03-06T03:16:54.314Z,152.20
2018-03-06T03:19:20.981Z,145.33
2018-03-06T03:21:47.548Z,189.60
2018-03-06T03:24:15.558Z,171.63
2018-03-06T03:26:42.113Z,163.77
2018-03-06T03:29:09.450Z,179.77
2018-03-06T03:31:36.565Z,167.13
2018-03-06T03:34:03.619Z,164.60
2018-03-06T03:36:30.580Z,163.60
2018-03-06T03:38:59.830Z,146.77
2018-03-06T03:41:26.527Z,160.23
2018-03-06T03:43:54.412Z,153.73
2018-03-06T03:46:21.271Z,159.50
2018-03-06T03:48:48.778Z,161.53
2018-03-06T03:51:15.511Z,137.93
2018-03-06T03:53:42.846Z,160.23
2018-03-06T03:56:10.470Z,143.33
2018-03-06T03:58:37.102Z,160.63
2018-03-06T04:01:03.862Z,154.73
2018-03-06T04:03:31.262Z,164.17
2018-03-06T04:05:57.898Z,154.37
2018-03-06T04:08:24.538Z,145.03
2018-03-06T04:10:51.221Z,166.67
2018-03-06T04:13:17.876Z,148.07
2018-03-06T04:15:45.990Z,161.67
2018-03-06T04:18:12.742Z,156.13
2018-03-06T04:20:39.418Z,157.97
2018-03-06T04:23:06.116Z,151.17
2018-03-06T04:25:33.054Z,170.50
2018-03-06T04:28:00.064Z,147.53
2018-03-06T04:30:28.321Z,137.87
2018-03-06T04:32:56.832Z,162.30
2018-03-06T04:35:23.417Z,163.97
2018-03-06T04:37:50.058Z,153.10
2018-03-06T04:40:17.336Z,160.17
2018-03-06T04:42:44.045Z,171.90
2018-03-06T04:45:19.951Z,160.10
2018-03-06T04:47:46.844Z,169.47
2018-03-06T04:50:14.273Z,156.93
2018-03-06T04:52:40.921Z,159.30
2018-03-06T04:55:07.917Z,152.27
2018-03-06T04:57:34.592Z,154.73
2018-03-06T05:00:07.941Z,147.40
2018-03-06T05:02:34.626Z,185.20
2018-03-06T05:05:02.003Z,172.73
2018-03-06T05:07:30.061Z,174.07
2018-03-06T05:09:57.006Z,145.90
2018-03-06T05:12:24.034Z,157.33
2018-03-06T05:14:50.777Z,184.00
2018-03-06T05:17:18.125Z,166.73
2018-03-06T05:19:44.723Z,178.97
2018-03-06T05:22:12.541Z,163.63
2018-03-06T05:24:39.223Z,153.00
2018-03-06T05:27:06.582Z,164.30
2018-03-06T05:29:33.587Z,167.20
2018-03-06T05:32:00.551Z,159.23
2018-03-06T05:34:27.251Z,180.53
2018-03-06T05:36:54.949Z,162.90
2018-03-06T05:39:21.606Z,138.00
2018-03-06T05:41:49.431Z,166.83
2018-03-06T05:44:16.153Z,149.53
2018-03-06T05:46:43.424Z,157.30
2018-03-06T05:49:10.774Z,159.60
2018-03-06T05:51:37.455Z,152.20
2018-03-06T05:54:05.354Z,156.07
2018-03-06T05:56:31.893Z,171.80
2018-03-06T06:01:34.670Z,168.70
2018-03-06T06:04:02.481Z,151.67
2018-03-06T06:06:29.059Z,172.93
2018-03-06T06:08:58.433Z,154.40
2018-03-06T06:11:37.271Z,158.37
2018-03-06T06:14:08.667Z,171.87
2018-03-06T06:16:36.532Z,191.43
2018-03-06T06:19:03.660Z,199.10
2018-03-06T06:21:31.028Z,197.40
2018-03-06T06:23:59.269Z,188.50
2018-03-06T06:26:26.896Z,171.53
2018-03-06T06:28:53.789Z,188.30
2018-03-06T06:31:20.579Z,178.97
2018-03-06T06:33:47.198Z,194.17
2018-03-06T06:36:13.815Z,222.73
2018-03-06T06:38:40.778Z,180.73
2018-03-06T06:41:08.072Z,202.20
2018-03-06T06:43:34.665Z,178.67
2018-03-06T06:46:01.252Z,205.50
2018-03-06T06:48:28.126Z,188.13
2018-03-06T06:50:54.663Z,192.27
2018-03-06T06:53:22.892Z,188.30
2018-03-06T06:55:50.563Z,196.40
2018-03-06T06:58:17.087Z,192.73
2018-03-06T07:00:44.267Z,209.00
2018-03-06T07:03:10.884Z,187.30
2018-03-06T07:05:37.456Z,198.13
2018-03-06T07:08:04.560Z,177.70
2018-03-06T07:10:31.152Z,181.23
2018-03-06T07:12:57.962Z,188.10
2018-03-06T07:15:25.113Z,187.20
2018-03-06T07:17:53.311Z,164.67
2018-03-06T07:20:21.601Z,196.53
2018-03-06T07:22:50.578Z,195.87
2018-03-06T07:25:17.718Z,162.33
2018-03-06T07:27:44.263Z,152.90
2018-03-06T07:30:11.616Z,147.97
2018-03-06T07:32:39.003Z,152.73
2018-03-06T07:35:05.641Z,155.10
2018-03-06T07:37:32.252Z,160.27
2018-03-06T07:40:00.749Z,166.37
2018-03-06T07:42:27.408Z,156.37
2018-03-06T07:44:54.688Z,154.47
2018-03-06T07:47:21.617Z,145.73
2018-03-06T07:49:48.174Z,159.50
2018-03-06T07:52:15.229Z,150.03
2018-03-06T07:54:42.520Z,152.17
2018-03-06T07:57:09.149Z,150.17
2018-03-06T07:59:36.577Z,140.03
2018-03-06T08:02:04.193Z,147.20
2018-03-06T08:04:31.151Z,132.17
2018-03-06T08:06:57.964Z,132.97
2018-03-06T08:09:24.898Z,130.37
2018-03-06T08:11:51.450Z,125.00
2018-03-06T08:14:18.852Z,134.87
2018-03-06T08:16:46.111Z,136.23
2018-03-06T08:19:14.436Z,138.37
2018-03-06T08:21:41.834Z,127.17
2018-03-06T08:24:08.379Z,128.10
2018-03-06T08:26:34.898Z,137.03
2018-03-06T08:29:02.248Z,116.97
2018-03-06T08:31:29.924Z,125.43
2018-03-06T08:33:57.577Z,117.47
2018-03-06T08:36:25.035Z,123.17
2018-03-06T08:38:51.830Z,122.90
2018-03-06T08:41:19.592Z,110.50
2018-03-06T08:43:46.967Z,118.37
2018-03-06T08:46:14.078Z,121.93
2018-03-06T08:48:42.304Z,115.37
2018-03-06T08:51:09.238Z,118.03
2018-03-06T08:53:37.468Z,110.57
2018-03-06T08:56:04.781Z,116.80
2018-03-06T08:58:32.941Z,118.00
2018-03-06T09:00:59.571Z,111.80
2018-03-06T09:03:26.904Z,102.53
2018-03-06T09:05:56.433Z,118.73
2018-03-06T09:08:23.208Z,112.23
2018-03-06T09:10:50.564Z,119.37
2018-03-06T09:13:17.393Z,118.50
2018-03-06T09:15:45.474Z,111.57
2018-03-06T09:18:13.511Z,112.77
2018-03-06T09:20:40.634Z,101.93
2018-03-06T09:23:08.069Z,123.13
2018-03-06T09:25:34.824Z,117.57
2018-03-06T09:28:01.529Z,106.30
2018-03-06T09:30:28.722Z,109.87
2018-03-06T09:32:57.350Z,106.80
2018-03-06T09:35:24.437Z,108.00
2018-03-06T09:37:50.959Z,114.20
2018-03-06T09:40:17.553Z,112.30
2018-03-06T09:42:45.661Z,102.73
2018-03-06T09:45:12.991Z,105.87
2018-03-06T09:47:42.111Z,107.73
2018-03-06T09:50:11.595Z,100.53
2018-03-06T09:52:39.037Z,103.23
2018-03-06T09:55:06.031Z,122.13
2018-03-06T09:57:33.700Z,108.90
2018-03-06T10:00:01.118Z,111.53
2018-03-06T10:02:28.137Z,117.10
2018-03-06T10:04:54.723Z,118.93
2018-03-06T10:07:22.979Z,89.77
2018-03-06T10:09:49.642Z,112.50
2018-03-06T10:12:16.650Z,103.70
2018-03-06T10:14:43.610Z,110.77
2018-03-06T10:17:10.168Z,109.10
2018-03-06T10:19:36.778Z,108.73
2018-03-06T10:22:03.357Z,114.70
2018-03-06T10:24:31.720Z,115.83
2018-03-06T10:26:58.428Z,126.87
2018-03-06T10:29:24.952Z,109.57
2018-03-06T10:31:52.214Z,116.90
2018-03-06T10:34:18.790Z,107.23
2018-03-06T10:36:46.143Z,108.97
2018-03-06T10:39:12.675Z,108.23
2018-03-06T10:41:39.730Z,109.97
2018-03-06T10:44:07.436Z,99.33
2018-03-06T10:46:35.491Z,109.33
2018-03-06T10:49:03.267Z,106.50
2018-03-06T10:51:31.540Z,107.63
2018-03-06T10:53:58.544Z,108.47
2018-03-06T10:56:25.080Z,104.73
2018-03-06T10:58:52.740Z,101.90
2018-03-06T11:01:24.299Z,100.60
2018-03-06T11:03:51.014Z,100.60
2018-03-06T11:06:17.715Z,110.53
2018-03-06T11:08:45.048Z,107.70
2018-03-06T11:11:11.611Z,110.63
2018-03-06T11:13:38.508Z,107.93
2018-03-06T11:16:06.310Z,104.80
2018-03-06T11:18:34.051Z,101.27
2018-03-06T11:21:01.007Z,97.57
2018-03-06T11:23:29.082Z,99.57
2018-03-06T11:25:56.256Z,101.57
2018-03-06T11:28:23.454Z,99.20
2018-03-06T11:30:50.834Z,105.80
2018-03-06T11:33:18.161Z,102.20
2018-03-06T11:35:46.409Z,105.93
2018-03-06T11:38:13.556Z,100.97
2018-03-06T11:40:42.325Z,98.77
2018-03-06T11:43:11.462Z,113.00
2018-03-06T11:45:38.222Z,98.00
2018-03-06T11:48:05.884Z,111.80
2018-03-06T11:50:32.527Z,98.70
2018-03-06T11:52:59.241Z,103.17
2018-03-06T11:55:27.718Z,100.77
2018-03-06T11:57:54.704Z,111.77
2018-03-06T12:00:22.203Z,117.73
2018-03-06T12:02:48.837Z,100.87
2018-03-06T12:05:15.466Z,99.57
2018-03-06T12:07:43.564Z,98.37
2018-03-06T12:10:10.173Z,109.83
2018-03-06T12:12:37.548Z,121.23
2018-03-06T12:15:04.609Z,108.37
2018-03-06T12:17:32.872Z,101.77
2018-03-06T12:20:00.467Z,93.87
2018-03-06T12:22:27.067Z,105.87
2018-03-06T12:24:54.351Z,89.57
2018-03-06T12:27:22.628Z,99.60
2018-03-06T12:29:49.562Z,101.27
2018-03-06T12:32:16.557Z,99.13
2018-03-06T12:34:43.838Z,87.93
2018-03-06T12:37:10.727Z,98.40
2018-03-06T12:39:37.621Z,107.63
2018-03-06T12:42:05.793Z,99.40
2018-03-06T12:44:32.702Z,102.93
2018-03-06T12:46:59.932Z,104.47
2018-03-06T12:49:26.633Z,111.87
2018-03-06T12:51:53.793Z,98.30
2018-03-06T12:54:20.770Z,104.87
2018-03-06T12:56:47.426Z,98.93
2018-03-06T12:59:15.230Z,113.23
2018-03-06T13:01:42.696Z,106.03
2018-03-06T13:04:09.632Z,107.17
2018-03-06T13:06:36.591Z,114.80
2018-03-06T13:09:04.996Z,99.07
2018-03-06T13:11:33.560Z,99.30
2018-03-06T13:14:00.909Z,101.37
2018-03-06T13:16:27.572Z,111.30
2018-03-06T13:18:54.956Z,105.40
2018-03-06T13:21:21.936Z,107.77
2018-03-06T13:23:49.168Z,98.87
2018-03-06T13:26:16.160Z,97.93
2018-03-06T13:28:44.341Z,106.93
2018-03-06T13:31:11.592Z,100.27
2018-03-06T13:33:38.150Z,105.07
2018-03-06T13:36:05.096Z,101.33
2018-03-06T13:38:32.549Z,93.93
2018-03-06T13:40:59.145Z,93.83
2018-03-06T13:43:25.717Z,106.13
2018-03-06T13:45:52.354Z,101.23
2018-03-06T13:48:19.639Z,106.07
2018-03-06T13:50:47.016Z,89.17
2018-03-06T13:53:14.429Z,95.67
2018-03-06T13:55:41.377Z,99.83
2018-03-06T13:58:09.385Z,92.10
2018-03-06T14:00:36.434Z,94.83
2018-03-06T14:03:03.231Z,104.00
2018-03-06T14:05:31.712Z,113.27
2018-03-06T14:08:00.411Z,106.10
2018-03-06T14:10:27.346Z,101.03
2018-03-06T14:12:55.594Z,92.60
2018-03-06T14:15:22.617Z,101.27
2018-03-06T14:17:49.250Z,101.40
2018-03-06T14:20:17.580Z,92.70
2018-03-06T14:22:46.065Z,106.47
2018-03-06T14:25:12.626Z,98.07
2018-03-06T14:27:40.237Z,98.07
2018-03-06T14:30:07.571Z,99.57
2018-03-06T14:32:35.542Z,98.80
2018-03-06T14:35:03.633Z,95.67
2018-03-06T14:37:32.502Z,107.73
2018-03-06T14:39:59.169Z,99.80
2018-03-06T14:42:26.400Z,115.67
2018-03-06T14:44:55.862Z,112.17
2018-03-06T14:47:22.650Z,107.30
2018-03-06T14:49:50.849Z,109.57
2018-03-06T14:52:19.391Z,114.03
2018-03-06T14:54:48.045Z,112.73
2018-03-06T14:57:15.525Z,117.83
2018-03-06T14:59:42.759Z,112.83
2018-03-06T15:02:09.620Z,117.77
2018-03-06T15:04:36.212Z,112.93
2018-03-06T15:07:04.647Z,115.23
2018-03-06T15:09:31.945Z,120.50
2018-03-06T15:11:59.433Z,132.20
2018-03-06T15:14:26.095Z,119.70
2018-03-06T15:16:53.798Z,108.73
2018-03-06T15:19:21.385Z,121.27
2018-03-06T15:21:48.414Z,124.57
2018-03-06T15:24:15.029Z,126.37
2018-03-06T15:26:41.552Z,124.17
2018-03-06T15:29:10.065Z,145.30
2018-03-06T15:31:37.445Z,137.80
2018-03-06T15:34:05.723Z,143.60
2018-03-06T15:36:34.043Z,136.90
2018-03-06T15:39:01.696Z,147.17
2018-03-06T15:41:31.159Z,134.87
2018-03-06T15:43:59.885Z,146.70
2018-03-06T15:46:29.225Z,145.90
2018-03-06T15:48:55.884Z,139.10
2018-03-06T15:51:24.216Z,136.40
2018-03-06T15:53:51.782Z,144.63
2018-03-06T15:56:19.300Z,140.13
2018-03-06T15:58:49.977Z,144.93
2018-03-06T16:01:16.738Z,154.27
2018-03-06T16:03:43.824Z,144.03
2018-03-06T16:06:12.291Z,153.00
2018-03-06T16:08:39.643Z,143.13
2018-03-06T16:11:07.034Z,144.90
2018-03-06T16:13:35.364Z,134.77
2018-03-06T16:16:03.756Z,144.83
2018-03-06T16:18:31.494Z,143.03
2018-03-06T16:20:59.761Z,144.23
2018-03-06T16:23:26.308Z,141.73
2018-03-06T16:25:53.666Z,133.60
2018-03-06T16:28:21.003Z,136.77
2018-03-06T16:30:47.947Z,138.97
2018-03-06T16:33:15.584Z,143.80
2018-03-06T16:35:43.062Z,143.13
2018-03-06T16:38:09.637Z,136.40
2018-03-06T16:40:36.284Z,142.20
2018-03-06T16:43:03.025Z,149.80
2018-03-06T16:45:30.328Z,135.73
2018-03-06T16:47:57.962Z,136.37
2018-03-06T16:50:25.486Z,145.07
2018-03-06T16:52:52.046Z,152.40
2018-03-06T16:55:18.543Z,151.53
2018-03-06T16:57:45.928Z,140.67
2018-03-06T17:00:12.935Z,149.60
2018-03-06T17:02:39.838Z,152.90
2018-03-06T17:05:08.570Z,135.30
2018-03-06T17:07:35.506Z,137.77
2018-03-06T17:10:02.249Z,144.37
2018-03-06T17:12:30.040Z,146.63
2018-03-06T17:14:58.298Z,141.37
2018-03-06T17:17:24.884Z,154.33
2018-03-06T17:19:53.346Z,144.03
2018-03-06T17:22:21.121Z,149.47
2018-03-06T17:24:48.122Z,149.10
2018-03-06T17:27:15.878Z,146.07
2018-03-06T17:29:50.104Z,145.90
2018-03-06T17:32:17.477Z,159.37
2018-03-06T17:34:44.856Z,164.10
2018-03-06T17:37:11.794Z,154.03
2018-03-06T17:39:38.521Z,164.40
2018-03-06T17:42:05.542Z,138.80
2018-03-06T17:44:32.073Z,145.60
2018-03-06T17:46:59.554Z,152.07
2018-03-06T17:49:27.714Z,150.37
2018-03-06T17:51:55.038Z,148.50
2018-03-06T17:54:22.928Z,148.70
2018-03-06T17:56:51.501Z,152.40
2018-03-06T17:59:19.257Z,139.23
2018-03-06T18:01:46.084Z,156.90
2018-03-06T18:04:13.426Z,146.20
2018-03-06T18:06:41.371Z,166.83
2018-03-06T18:09:09.148Z,167.77
2018-03-06T18:11:35.738Z,151.00
2018-03-06T18:14:03.616Z,152.50
2018-03-06T18:16:30.956Z,159.27
2018-03-06T18:18:57.761Z,165.90
2018-03-06T18:21:24.427Z,148.90
2018-03-06T18:23:52.422Z,154.80
2018-03-06T18:26:19.591Z,154.50
2018-03-06T18:28:46.265Z,150.97
2018-03-06T18:31:12.923Z,164.37
2018-03-06T18:33:40.221Z,167.17
2018-03-06T18:36:07.548Z,159.40
2018-03-06T18:38:34.164Z,151.50
2018-03-06T18:41:01.101Z,160.53
2018-03-06T18:43:28.456Z,171.10
2018-03-06T18:45:55.577Z,155.43
2018-03-06T18:48:22.219Z,154.17
2018-03-06T18:51:12.016Z,153.67
2018-03-06T18:53:38.952Z,164.67
2018-03-06T18:56:05.827Z,155.60
2018-03-06T18:58:33.455Z,150.43
2018-03-06T19:04:30.502Z,161.93
2018-03-06T19:07:07.288Z,171.07
2018-03-06T19:09:35.806Z,158.23
2018-03-06T19:12:04.501Z,162.80
2018-03-06T19:14:31.895Z,160.97
2018-03-06T19:16:59.827Z,182.80
2018-03-06T19:19:27.097Z,153.10
2018-03-06T19:21:54.053Z,167.40
2018-03-06T19:24:22.610Z,164.90
2018-03-06T19:26:49.782Z,164.47
2018-03-06T19:29:18.142Z,169.50
2018-03-06T19:31:49.131Z,190.27
2018-03-06T19:34:15.867Z,167.93
2018-03-06T19:36:42.501Z,411.30
2018-03-06T19:39:09.302Z,277.47
2018-03-06T19:41:36.967Z,227.83
2018-03-06T19:44:05.801Z,183.00
2018-03-06T19:46:32.844Z,164.60
2018-03-06T19:49:00.575Z,165.43
2018-03-06T19:51:29.673Z,168.03
2018-03-06T19:53:58.617Z,168.40
2018-03-06T19:56:25.703Z,160.43
2018-03-06T19:58:53.092Z,172.23
2018-03-06T20:01:22.225Z,175.93
2018-03-06T20:03:51.084Z,188.40
2018-03-06T20:06:19.094Z,179.87
2018-03-06T20:08:45.802Z,182.10
2018-03-06T20:11:12.471Z,169.57
2018-03-06T20:13:39.292Z,195.30
2018-03-06T20:16:08.684Z,172.00
2018-03-06T20:18:35.514Z,175.33
2018-03-06T20:21:02.980Z,163.03
2018-03-06T20:23:31.268Z,176.03
2018-03-06T20:25:59.991Z,174.90
2018-03-06T20:28:28.330Z,185.43
2018-03-06T20:31:03.901Z,171.77
2018-03-06T20:33:31.675Z,190.80
2018-03-06T20:35:58.665Z,181.27
2018-03-06T20:38:31.575Z,203.37
2018-03-06T20:40:58.408Z,189.13
2018-03-06T20:43:25.129Z,168.10
2018-03-06T20:45:57.775Z,180.13
2018-03-06T20:48:24.402Z,188.67
2018-03-06T20:50:52.166Z,179.03
2018-03-06T20:53:25.355Z,181.53
2018-03-06T20:55:52.604Z,185.50
2018-03-06T20:58:20.351Z,194.83
2018-03-06T21:00:47.068Z,179.83
2018-03-06T21:03:14.652Z,176.23
2018-03-06T21:05:42.857Z,192.97
2018-03-06T21:08:10.612Z,181.80
2018-03-06T21:10:37.488Z,178.20
2018-03-06T21:13:04.495Z,203.43
2018-03-06T21:15:32.371Z,199.63
2018-03-06T21:17:58.991Z,207.57
2018-03-06T21:20:27.658Z,200.43
2018-03-06T21:22:55.407Z,195.53
2018-03-06T21:25:22.783Z,194.70
2018-03-06T21:27:50.275Z,182.07
2018-03-06T21:30:17.505Z,197.13
2018-03-06T21:32:45.668Z,205.67
2018-03-06T21:35:14.860Z,181.23
2018-03-06T21:37:42.029Z,190.00
2018-03-06T21:40:09.335Z,194.00
2018-03-06T21:42:36.978Z,192.27
2018-03-06T21:45:06.572Z,196.40
2018-03-06T21:47:37.034Z,199.30
2018-03-06T21:50:04.174Z,194.37
2018-03-06T21:52:32.398Z,176.17
2018-03-06T21:55:01.032Z,193.00
2018-03-06T21:57:27.590Z,192.90
2018-03-06T21:59:57.230Z,213.53
2018-03-06T22:02:24.310Z,194.90
2018-03-06T22:04:54.136Z,174.50
2018-03-06T22:07:22.237Z,191.83
2018-03-06T22:09:49.655Z,220.97
2018-03-06T22:12:18.131Z,187.33
2018-03-06T22:14:45.182Z,197.93
2018-03-06T22:17:12.186Z,202.30
2018-03-06T22:19:38.933Z,193.33
2018-03-06T22:22:06.288Z,197.17
2018-03-06T22:24:34.090Z,217.67
2018-03-06T22:27:02.449Z,185.53
2018-03-06T22:29:30.031Z,188.47
2018-03-06T22:31:57.077Z,200.97
2018-03-06T22:34:23.637Z,191.30
2018-03-06T22:36:50.539Z,190.67
2018-03-06T22:39:17.290Z,201.00
2018-03-06T22:41:43.825Z,195.17
2018-03-06T22:44:11.334Z,180.80
2018-03-06T22:46:37.886Z,183.03
2018-03-06T22:49:06.665Z,216.37
2018-03-06T22:51:34.013Z,213.20
2018-03-06T22:54:00.654Z,178.90
2018-03-06T22:56:27.294Z,193.40
2018-03-06T22:58:53.943Z,232.83
2018-03-06T23:01:20.673Z,214.93
2018-03-06T23:03:48.841Z,195.40
2018-03-06T23:06:16.603Z,197.70
2018-03-06T23:08:44.477Z,195.10
2018-03-06T23:11:12.140Z,214.10
2018-03-06T23:13:39.170Z,187.67
2018-03-06T23:16:06.163Z,206.73
2018-03-06T23:18:32.738Z,195.80
2018-03-06T23:20:59.361Z,208.17
2018-03-06T23:23:27.536Z,213.60
2018-03-06T23:25:54.058Z,204.00
2018-03-06T23:28:21.774Z,204.20
2018-03-06T23:30:48.564Z,196.23
2018-03-06T23:33:15.145Z,202.87
2018-03-06T23:35:41.764Z,186.87
2018-03-06T23:38:08.260Z,215.23
2018-03-06T23:40:35.337Z,197.87
2018-03-06T23:43:02.565Z,201.50
2018-03-06T23:45:29.164Z,211.33
2018-03-06T23:47:55.802Z,203.73
2018-03-06T23:50:24.367Z,200.87
2018-03-06T23:52:52.914Z,217.10
2018-03-06T23:55:19.502Z,211.50
2018-03-06T23:57:46.805Z,201.53
